sensor_id;sensor_type;location;lat;lon;timestamp;temperature;humidity
25352;DHT22;13304;48.464;8.712;2023-11-19T00:02:19;10.60;95.20
25352;DHT22;13304;48.464;8.712;2023-11-19T00:04:44;10.60;95.20
25352;DHT22;13304;48.464;8.712;2023-11-19T00:07:10;10.60;95.30
25352;DHT22;13304;48.464;8.712;2023-11-19T00:09:38;10.60;95.50
25352;DHT22;13304;48.464;8.712;2023-11-19T00:12:05;10.60;95.60
25352;DHT22;13304;48.464;8.712;2023-11-19T00:14:31;10.60;95.70
25352;DHT22;13304;48.464;8.712;2023-11-19T00:16:57;10.60;95.80
25352;DHT22;13304;48.464;8.712;2023-11-19T00:19:22;10.60;95.80
25352;DHT22;13304;48.464;8.712;2023-11-19T00:21:48;10.60;95.90
25352;DHT22;13304;48.464;8.712;2023-11-19T00:24:14;10.70;96.00
25352;DHT22;13304;48.464;8.712;2023-11-19T00:26:42;10.70;96.10
25352;DHT22;13304;48.464;8.712;2023-11-19T00:29:08;10.70;96.10
25352;DHT22;13304;48.464;8.712;2023-11-19T00:31:33;10.70;96.10
25352;DHT22;13304;48.464;8.712;2023-11-19T00:33:59;10.70;96.20
25352;DHT22;13304;48.464;8.712;2023-11-19T00:36:25;10.80;96.30
25352;DHT22;13304;48.464;8.712;2023-11-19T00:38:51;10.80;96.30
25352;DHT22;13304;48.464;8.712;2023-11-19T00:41:18;10.80;96.30
25352;DHT22;13304;48.464;8.712;2023-11-19T00:43:44;10.90;96.40
25352;DHT22;13304;48.464;8.712;2023-11-19T00:46:10;10.90;96.40
25352;DHT22;13304;48.464;8.712;2023-11-19T00:48:39;10.90;96.40
25352;DHT22;13304;48.464;8.712;2023-11-19T00:51:05;10.90;96.40
25352;DHT22;13304;48.464;8.712;2023-11-19T00:53:31;11.00;96.50
25352;DHT22;13304;48.464;8.712;2023-11-19T00:55:57;11.00;96.50
25352;DHT22;13304;48.464;8.712;2023-11-19T00:58:23;11.00;96.60
25352;DHT22;13304;48.464;8.712;2023-11-19T01:00:49;11.10;96.70
25352;DHT22;13304;48.464;8.712;2023-11-19T01:03:14;11.10;96.80
25352;DHT22;13304;48.464;8.712;2023-11-19T01:05:41;11.10;96.90
25352;DHT22;13304;48.464;8.712;2023-11-19T01:08:07;11.20;96.90
25352;DHT22;13304;48.464;8.712;2023-11-19T01:10:33;11.20;97.00
25352;DHT22;13304;48.464;8.712;2023-11-19T01:12:59;11.20;97.00
25352;DHT22;13304;48.464;8.712;2023-11-19T01:15:25;11.30;97.10
25352;DHT22;13304;48.464;8.712;2023-11-19T01:17:51;11.30;97.00
25352;DHT22;13304;48.464;8.712;2023-11-19T01:20:17;11.30;97.00
25352;DHT22;13304;48.464;8.712;2023-11-19T01:22:43;11.40;97.10
25352;DHT22;13304;48.464;8.712;2023-11-19T01:25:09;11.40;97.40
25352;DHT22;13304;48.464;8.712;2023-11-19T01:27:34;11.40;97.20
25352;DHT22;13304;48.464;8.712;2023-11-19T01:30:04;11.40;97.20
25352;DHT22;13304;48.464;8.712;2023-11-19T01:32:30;11.50;97.40
25352;DHT22;13304;48.464;8.712;2023-11-19T01:34:56;11.50;97.40
25352;DHT22;13304;48.464;8.712;2023-11-19T01:37:22;11.50;97.40
25352;DHT22;13304;48.464;8.712;2023-11-19T01:39:47;11.50;97.40
25352;DHT22;13304;48.464;8.712;2023-11-19T01:42:13;11.50;97.30
25352;DHT22;13304;48.464;8.712;2023-11-19T01:44:39;11.60;97.30
25352;DHT22;13304;48.464;8.712;2023-11-19T01:47:04;11.60;97.30
25352;DHT22;13304;48.464;8.712;2023-11-19T01:49:32;11.70;97.30
25352;DHT22;13304;48.464;8.712;2023-11-19T01:51:58;11.70;97.30
25352;DHT22;13304;48.464;8.712;2023-11-19T01:54:25;11.70;97.30
25352;DHT22;13304;48.464;8.712;2023-11-19T01:56:53;11.80;97.40
25352;DHT22;13304;48.464;8.712;2023-11-19T01:59:22;11.80;97.50
25352;DHT22;13304;48.464;8.712;2023-11-19T02:01:53;11.80;97.60
25352;DHT22;13304;48.464;8.712;2023-11-19T02:04:19;11.90;97.70
25352;DHT22;13304;48.464;8.712;2023-11-19T02:06:47;11.90;97.70
25352;DHT22;13304;48.464;8.712;2023-11-19T02:09:14;11.90;97.80
25352;DHT22;13304;48.464;8.712;2023-11-19T02:11:40;11.90;97.80
25352;DHT22;13304;48.464;8.712;2023-11-19T02:14:06;12.00;97.80
25352;DHT22;13304;48.464;8.712;2023-11-19T02:16:32;12.00;97.70
25352;DHT22;13304;48.464;8.712;2023-11-19T02:18:58;12.00;97.70
25352;DHT22;13304;48.464;8.712;2023-11-19T02:21:23;12.10;97.70
25352;DHT22;13304;48.464;8.712;2023-11-19T02:23:49;12.10;97.70
25352;DHT22;13304;48.464;8.712;2023-11-19T02:26:37;12.10;97.70
25352;DHT22;13304;48.464;8.712;2023-11-19T02:29:04;12.10;97.70
25352;DHT22;13304;48.464;8.712;2023-11-19T02:31:32;12.20;97.70
25352;DHT22;13304;48.464;8.712;2023-11-19T02:33:59;12.30;97.70
25352;DHT22;13304;48.464;8.712;2023-11-19T02:36:25;12.30;97.60
25352;DHT22;13304;48.464;8.712;2023-11-19T02:38:51;12.30;97.60
25352;DHT22;13304;48.464;8.712;2023-11-19T02:41:16;12.30;97.60
25352;DHT22;13304;48.464;8.712;2023-11-19T02:43:42;12.30;97.60
25352;DHT22;13304;48.464;8.712;2023-11-19T02:46:08;12.30;97.60
25352;DHT22;13304;48.464;8.712;2023-11-19T02:48:34;12.40;97.60
25352;DHT22;13304;48.464;8.712;2023-11-19T02:51:04;12.40;97.50
25352;DHT22;13304;48.464;8.712;2023-11-19T02:53:30;12.40;97.60
25352;DHT22;13304;48.464;8.712;2023-11-19T02:55:56;12.30;97.50
25352;DHT22;13304;48.464;8.712;2023-11-19T02:58:27;12.40;97.50
25352;DHT22;13304;48.464;8.712;2023-11-19T03:00:57;12.40;97.40
25352;DHT22;13304;48.464;8.712;2023-11-19T03:03:26;12.40;97.40
25352;DHT22;13304;48.464;8.712;2023-11-19T03:06:07;12.40;97.40
25352;DHT22;13304;48.464;8.712;2023-11-19T03:08:34;12.50;97.40
25352;DHT22;13304;48.464;8.712;2023-11-19T03:11:00;12.40;97.40
25352;DHT22;13304;48.464;8.712;2023-11-19T03:13:26;12.40;97.30
25352;DHT22;13304;48.464;8.712;2023-11-19T03:15:52;12.50;97.30
25352;DHT22;13304;48.464;8.712;2023-11-19T03:18:19;12.50;97.30
25352;DHT22;13304;48.464;8.712;2023-11-19T03:20:46;12.50;97.30
25352;DHT22;13304;48.464;8.712;2023-11-19T03:23:14;12.40;97.30
25352;DHT22;13304;48.464;8.712;2023-11-19T03:25:40;12.50;97.30
25352;DHT22;13304;48.464;8.712;2023-11-19T03:28:06;12.50;97.40
25352;DHT22;13304;48.464;8.712;2023-11-19T03:30:32;12.40;97.30
25352;DHT22;13304;48.464;8.712;2023-11-19T03:32:58;12.50;97.40
25352;DHT22;13304;48.464;8.712;2023-11-19T03:35:25;12.50;97.30
25352;DHT22;13304;48.464;8.712;2023-11-19T03:37:51;12.50;97.30
25352;DHT22;13304;48.464;8.712;2023-11-19T03:40:17;12.50;97.30
25352;DHT22;13304;48.464;8.712;2023-11-19T03:42:47;12.50;97.30
25352;DHT22;13304;48.464;8.712;2023-11-19T03:45:13;12.50;97.30
25352;DHT22;13304;48.464;8.712;2023-11-19T03:47:39;12.60;97.40
25352;DHT22;13304;48.464;8.712;2023-11-19T03:50:06;12.50;97.40
25352;DHT22;13304;48.464;8.712;2023-11-19T03:52:33;12.50;97.30
25352;DHT22;13304;48.464;8.712;2023-11-19T03:54:59;12.50;97.40
25352;DHT22;13304;48.464;8.712;2023-11-19T03:57:24;12.60;97.40
25352;DHT22;13304;48.464;8.712;2023-11-19T03:59:50;12.60;97.40
25352;DHT22;13304;48.464;8.712;2023-11-19T04:02:16;12.60;97.40
25352;DHT22;13304;48.464;8.712;2023-11-19T04:04:42;12.60;97.40
25352;DHT22;13304;48.464;8.712;2023-11-19T04:07:08;12.60;97.30
25352;DHT22;13304;48.464;8.712;2023-11-19T04:09:34;12.60;97.30
25352;DHT22;13304;48.464;8.712;2023-11-19T04:12:00;12.70;97.30
25352;DHT22;13304;48.464;8.712;2023-11-19T04:14:26;12.70;97.30
25352;DHT22;13304;48.464;8.712;2023-11-19T04:16:52;12.70;97.30
25352;DHT22;13304;48.464;8.712;2023-11-19T04:19:19;12.70;97.30
25352;DHT22;13304;48.464;8.712;2023-11-19T04:21:44;12.70;97.30
25352;DHT22;13304;48.464;8.712;2023-11-19T04:24:10;12.70;97.40
25352;DHT22;13304;48.464;8.712;2023-11-19T04:26:43;12.70;97.40
25352;DHT22;13304;48.464;8.712;2023-11-19T04:29:12;12.70;97.40
25352;DHT22;13304;48.464;8.712;2023-11-19T04:31:37;12.70;97.40
25352;DHT22;13304;48.464;8.712;2023-11-19T04:34:03;12.70;97.40
25352;DHT22;13304;48.464;8.712;2023-11-19T04:36:29;12.70;97.40
25352;DHT22;13304;48.464;8.712;2023-11-19T04:38:55;12.70;97.40
25352;DHT22;13304;48.464;8.712;2023-11-19T04:41:21;12.80;97.40
25352;DHT22;13304;48.464;8.712;2023-11-19T04:43:46;12.80;97.40
25352;DHT22;13304;48.464;8.712;2023-11-19T04:46:12;12.80;97.30
25352;DHT22;13304;48.464;8.712;2023-11-19T04:48:38;12.80;97.30
25352;DHT22;13304;48.464;8.712;2023-11-19T04:51:07;12.80;97.40
25352;DHT22;13304;48.464;8.712;2023-11-19T04:53:32;12.80;97.30
25352;DHT22;13304;48.464;8.712;2023-11-19T04:55:58;12.80;97.30
25352;DHT22;13304;48.464;8.712;2023-11-19T04:58:24;12.90;97.40
25352;DHT22;13304;48.464;8.712;2023-11-19T05:00:50;12.90;97.30
25352;DHT22;13304;48.464;8.712;2023-11-19T05:03:16;12.90;97.30
25352;DHT22;13304;48.464;8.712;2023-11-19T05:05:41;12.90;97.30
25352;DHT22;13304;48.464;8.712;2023-11-19T05:08:07;12.90;97.30
25352;DHT22;13304;48.464;8.712;2023-11-19T05:10:32;12.90;97.30
25352;DHT22;13304;48.464;8.712;2023-11-19T05:12:58;12.90;97.30
25352;DHT22;13304;48.464;8.712;2023-11-19T05:15:24;12.90;97.30
25352;DHT22;13304;48.464;8.712;2023-11-19T05:17:49;12.90;97.30
25352;DHT22;13304;48.464;8.712;2023-11-19T05:20:15;12.90;97.30
25352;DHT22;13304;48.464;8.712;2023-11-19T05:22:42;12.90;97.30
25352;DHT22;13304;48.464;8.712;2023-11-19T05:25:08;12.90;97.30
25352;DHT22;13304;48.464;8.712;2023-11-19T05:27:37;12.90;97.30
25352;DHT22;13304;48.464;8.712;2023-11-19T05:30:04;12.90;97.40
25352;DHT22;13304;48.464;8.712;2023-11-19T05:32:33;12.90;97.30
25352;DHT22;13304;48.464;8.712;2023-11-19T05:34:58;12.90;97.40
25352;DHT22;13304;48.464;8.712;2023-11-19T05:37:24;12.90;97.40
25352;DHT22;13304;48.464;8.712;2023-11-19T05:39:51;12.90;97.40
25352;DHT22;13304;48.464;8.712;2023-11-19T05:42:16;12.90;97.40
25352;DHT22;13304;48.464;8.712;2023-11-19T05:44:42;12.90;97.50
25352;DHT22;13304;48.464;8.712;2023-11-19T05:47:08;13.00;97.50
25352;DHT22;13304;48.464;8.712;2023-11-19T05:49:34;12.90;97.50
25352;DHT22;13304;48.464;8.712;2023-11-19T05:51:59;12.90;97.50
25352;DHT22;13304;48.464;8.712;2023-11-19T05:54:27;13.00;97.50
25352;DHT22;13304;48.464;8.712;2023-11-19T05:56:52;13.00;97.50
25352;DHT22;13304;48.464;8.712;2023-11-19T05:59:20;12.90;97.50
25352;DHT22;13304;48.464;8.712;2023-11-19T06:01:45;13.00;97.50
25352;DHT22;13304;48.464;8.712;2023-11-19T06:04:11;13.00;97.50
25352;DHT22;13304;48.464;8.712;2023-11-19T06:06:37;13.00;97.50
25352;DHT22;13304;48.464;8.712;2023-11-19T06:09:03;13.00;97.50
25352;DHT22;13304;48.464;8.712;2023-11-19T06:11:30;13.10;97.40
25352;DHT22;13304;48.464;8.712;2023-11-19T06:13:55;13.10;97.40
25352;DHT22;13304;48.464;8.712;2023-11-19T06:16:21;13.10;97.40
25352;DHT22;13304;48.464;8.712;2023-11-19T06:18:47;13.10;97.40
25352;DHT22;13304;48.464;8.712;2023-11-19T06:21:13;13.10;97.40
25352;DHT22;13304;48.464;8.712;2023-11-19T06:23:38;13.10;97.30
25352;DHT22;13304;48.464;8.712;2023-11-19T06:26:04;13.20;97.30
25352;DHT22;13304;48.464;8.712;2023-11-19T06:28:31;13.20;97.30
25352;DHT22;13304;48.464;8.712;2023-11-19T06:30:57;13.20;97.30
25352;DHT22;13304;48.464;8.712;2023-11-19T06:33:24;13.20;97.70
25352;DHT22;13304;48.464;8.712;2023-11-19T06:35:50;13.20;97.30
25352;DHT22;13304;48.464;8.712;2023-11-19T06:38:15;13.20;97.30
25352;DHT22;13304;48.464;8.712;2023-11-19T06:40:44;13.20;97.30
25352;DHT22;13304;48.464;8.712;2023-11-19T06:43:10;13.20;97.30
25352;DHT22;13304;48.464;8.712;2023-11-19T06:45:35;13.20;97.30
25352;DHT22;13304;48.464;8.712;2023-11-19T06:48:03;13.20;97.40
25352;DHT22;13304;48.464;8.712;2023-11-19T06:50:29;13.20;97.40
25352;DHT22;13304;48.464;8.712;2023-11-19T06:52:55;13.20;97.40
25352;DHT22;13304;48.464;8.712;2023-11-19T06:55:20;13.20;97.50
25352;DHT22;13304;48.464;8.712;2023-11-19T06:57:46;13.20;97.50
25352;DHT22;13304;48.464;8.712;2023-11-19T07:00:12;13.20;97.40
25352;DHT22;13304;48.464;8.712;2023-11-19T07:02:37;13.30;97.40
25352;DHT22;13304;48.464;8.712;2023-11-19T07:05:05;13.20;97.40
25352;DHT22;13304;48.464;8.712;2023-11-19T07:07:31;13.30;97.50
25352;DHT22;13304;48.464;8.712;2023-11-19T07:09:58;13.30;97.50
25352;DHT22;13304;48.464;8.712;2023-11-19T07:12:23;13.30;97.50
25352;DHT22;13304;48.464;8.712;2023-11-19T07:14:52;13.30;97.50
25352;DHT22;13304;48.464;8.712;2023-11-19T07:17:18;13.30;97.50
25352;DHT22;13304;48.464;8.712;2023-11-19T07:19:49;13.30;97.50
25352;DHT22;13304;48.464;8.712;2023-11-19T07:22:14;13.30;97.40
25352;DHT22;13304;48.464;8.712;2023-11-19T07:24:40;13.30;97.50
25352;DHT22;13304;48.464;8.712;2023-11-19T07:27:07;13.40;97.50
25352;DHT22;13304;48.464;8.712;2023-11-19T07:29:34;13.40;97.50
25352;DHT22;13304;48.464;8.712;2023-11-19T07:32:00;13.40;97.40
25352;DHT22;13304;48.464;8.712;2023-11-19T07:34:27;13.50;97.40
25352;DHT22;13304;48.464;8.712;2023-11-19T07:36:53;13.50;97.40
25352;DHT22;13304;48.464;8.712;2023-11-19T07:39:19;13.50;97.40
25352;DHT22;13304;48.464;8.712;2023-11-19T07:41:46;13.50;97.40
25352;DHT22;13304;48.464;8.712;2023-11-19T07:44:12;13.50;97.40
25352;DHT22;13304;48.464;8.712;2023-11-19T07:46:37;13.60;97.40
25352;DHT22;13304;48.464;8.712;2023-11-19T07:49:03;13.60;97.40
25352;DHT22;13304;48.464;8.712;2023-11-19T07:51:29;13.60;97.40
25352;DHT22;13304;48.464;8.712;2023-11-19T07:53:54;13.60;97.40
25352;DHT22;13304;48.464;8.712;2023-11-19T07:56:20;13.70;97.40
25352;DHT22;13304;48.464;8.712;2023-11-19T07:58:46;13.70;97.40
25352;DHT22;13304;48.464;8.712;2023-11-19T08:01:11;13.70;97.30
25352;DHT22;13304;48.464;8.712;2023-11-19T08:03:37;13.70;97.20
25352;DHT22;13304;48.464;8.712;2023-11-19T08:06:04;13.70;97.30
25352;DHT22;13304;48.464;8.712;2023-11-19T08:08:30;13.80;97.20
25352;DHT22;13304;48.464;8.712;2023-11-19T08:10:58;13.80;97.10
25352;DHT22;13304;48.464;8.712;2023-11-19T08:13:24;13.80;96.80
25352;DHT22;13304;48.464;8.712;2023-11-19T08:15:51;13.90;96.80
25352;DHT22;13304;48.464;8.712;2023-11-19T08:18:17;13.90;96.80
25352;DHT22;13304;48.464;8.712;2023-11-19T08:20:44;13.90;96.70
25352;DHT22;13304;48.464;8.712;2023-11-19T08:23:10;13.90;96.60
25352;DHT22;13304;48.464;8.712;2023-11-19T08:25:36;13.90;96.60
25352;DHT22;13304;48.464;8.712;2023-11-19T08:28:02;13.90;96.60
25352;DHT22;13304;48.464;8.712;2023-11-19T08:30:29;13.90;96.50
25352;DHT22;13304;48.464;8.712;2023-11-19T08:32:55;13.90;96.50
25352;DHT22;13304;48.464;8.712;2023-11-19T08:35:20;13.80;96.50
25352;DHT22;13304;48.464;8.712;2023-11-19T08:37:46;13.90;96.50
25352;DHT22;13304;48.464;8.712;2023-11-19T08:40:12;13.80;96.50
25352;DHT22;13304;48.464;8.712;2023-11-19T08:42:40;13.80;96.50
25352;DHT22;13304;48.464;8.712;2023-11-19T08:45:10;13.80;96.60
25352;DHT22;13304;48.464;8.712;2023-11-19T08:47:36;13.80;96.50
25352;DHT22;13304;48.464;8.712;2023-11-19T08:50:02;13.80;96.70
25352;DHT22;13304;48.464;8.712;2023-11-19T08:52:30;13.80;96.80
25352;DHT22;13304;48.464;8.712;2023-11-19T08:54:55;13.80;96.90
25352;DHT22;13304;48.464;8.712;2023-11-19T08:57:24;13.90;96.90
25352;DHT22;13304;48.464;8.712;2023-11-19T08:59:49;13.90;96.70
25352;DHT22;13304;48.464;8.712;2023-11-19T09:02:15;13.90;96.60
25352;DHT22;13304;48.464;8.712;2023-11-19T09:04:41;13.90;96.60
25352;DHT22;13304;48.464;8.712;2023-11-19T09:07:07;14.00;97.10
25352;DHT22;13304;48.464;8.712;2023-11-19T09:09:35;14.00;96.70
25352;DHT22;13304;48.464;8.712;2023-11-19T09:12:02;14.00;96.80
25352;DHT22;13304;48.464;8.712;2023-11-19T09:14:29;14.00;96.90
25352;DHT22;13304;48.464;8.712;2023-11-19T09:16:56;14.00;96.90
25352;DHT22;13304;48.464;8.712;2023-11-19T09:19:22;14.10;97.00
25352;DHT22;13304;48.464;8.712;2023-11-19T09:21:48;14.10;97.00
25352;DHT22;13304;48.464;8.712;2023-11-19T09:24:15;14.10;97.00
25352;DHT22;13304;48.464;8.712;2023-11-19T09:26:40;14.20;97.00
25352;DHT22;13304;48.464;8.712;2023-11-19T09:29:10;14.20;96.80
25352;DHT22;13304;48.464;8.712;2023-11-19T09:31:37;14.30;96.80
25352;DHT22;13304;48.464;8.712;2023-11-19T09:34:03;14.30;96.90
25352;DHT22;13304;48.464;8.712;2023-11-19T09:36:29;14.40;96.90
25352;DHT22;13304;48.464;8.712;2023-11-19T09:38:54;14.40;96.60
25352;DHT22;13304;48.464;8.712;2023-11-19T09:41:20;14.50;96.60
25352;DHT22;13304;48.464;8.712;2023-11-19T09:43:46;14.50;96.60
25352;DHT22;13304;48.464;8.712;2023-11-19T09:46:15;14.50;96.60
25352;DHT22;13304;48.464;8.712;2023-11-19T09:48:41;14.50;96.40
25352;DHT22;13304;48.464;8.712;2023-11-19T09:51:08;14.50;96.40
25352;DHT22;13304;48.464;8.712;2023-11-19T09:53:35;14.60;96.50
25352;DHT22;13304;48.464;8.712;2023-11-19T09:56:03;14.60;96.60
25352;DHT22;13304;48.464;8.712;2023-11-19T09:58:32;14.60;96.60
25352;DHT22;13304;48.464;8.712;2023-11-19T10:00:58;14.70;96.70
25352;DHT22;13304;48.464;8.712;2023-11-19T10:03:34;14.60;96.50
25352;DHT22;13304;48.464;8.712;2023-11-19T10:06:03;14.80;96.30
25352;DHT22;13304;48.464;8.712;2023-11-19T10:08:30;14.80;96.50
25352;DHT22;13304;48.464;8.712;2023-11-19T10:10:55;14.90;96.30
25352;DHT22;13304;48.464;8.712;2023-11-19T10:13:26;14.90;96.20
25352;DHT22;13304;48.464;8.712;2023-11-19T10:15:53;14.90;95.80
25352;DHT22;13304;48.464;8.712;2023-11-19T10:18:18;14.90;96.00
25352;DHT22;13304;48.464;8.712;2023-11-19T10:20:48;15.00;95.70
25352;DHT22;13304;48.464;8.712;2023-11-19T10:23:14;15.00;95.70
25352;DHT22;13304;48.464;8.712;2023-11-19T10:25:40;15.10;95.30
25352;DHT22;13304;48.464;8.712;2023-11-19T10:28:05;15.10;95.00
25352;DHT22;13304;48.464;8.712;2023-11-19T10:30:31;15.10;94.80
25352;DHT22;13304;48.464;8.712;2023-11-19T10:33:12;15.10;94.60
25352;DHT22;13304;48.464;8.712;2023-11-19T10:35:56;15.10;94.60
25352;DHT22;13304;48.464;8.712;2023-11-19T10:38:23;15.10;93.90
25352;DHT22;13304;48.464;8.712;2023-11-19T10:40:50;15.20;94.50
25352;DHT22;13304;48.464;8.712;2023-11-19T10:43:19;15.30;93.80
25352;DHT22;13304;48.464;8.712;2023-11-19T10:45:45;15.30;93.60
25352;DHT22;13304;48.464;8.712;2023-11-19T10:48:11;15.20;92.80
25352;DHT22;13304;48.464;8.712;2023-11-19T10:50:42;15.30;93.40
25352;DHT22;13304;48.464;8.712;2023-11-19T10:53:09;15.30;93.60
25352;DHT22;13304;48.464;8.712;2023-11-19T10:55:36;15.30;93.70
25352;DHT22;13304;48.464;8.712;2023-11-19T10:58:09;15.30;93.70
25352;DHT22;13304;48.464;8.712;2023-11-19T11:00:46;15.30;93.60
25352;DHT22;13304;48.464;8.712;2023-11-19T11:03:20;15.30;93.20
25352;DHT22;13304;48.464;8.712;2023-11-19T11:05:51;15.40;92.90
25352;DHT22;13304;48.464;8.712;2023-11-19T11:08:19;15.40;92.80
25352;DHT22;13304;48.464;8.712;2023-11-19T11:10:52;15.50;93.00
25352;DHT22;13304;48.464;8.712;2023-11-19T11:13:28;15.50;93.20
25352;DHT22;13304;48.464;8.712;2023-11-19T11:15:56;15.40;93.30
25352;DHT22;13304;48.464;8.712;2023-11-19T11:18:23;15.50;93.30
25352;DHT22;13304;48.464;8.712;2023-11-19T11:20:54;15.50;93.20
25352;DHT22;13304;48.464;8.712;2023-11-19T11:28:48;15.50;93.40
25352;DHT22;13304;48.464;8.712;2023-11-19T11:39:14;15.50;93.10
25352;DHT22;13304;48.464;8.712;2023-11-19T11:41:41;15.40;92.80
25352;DHT22;13304;48.464;8.712;2023-11-19T11:44:07;15.50;93.20
25352;DHT22;13304;48.464;8.712;2023-11-19T11:49:09;15.50;93.10
25352;DHT22;13304;48.464;8.712;2023-11-19T11:57:09;15.50;92.20
25352;DHT22;13304;48.464;8.712;2023-11-19T12:02:13;15.50;92.10
25352;DHT22;13304;48.464;8.712;2023-11-19T12:04:43;15.50;91.40
25352;DHT22;13304;48.464;8.712;2023-11-19T12:07:17;15.50;91.60
25352;DHT22;13304;48.464;8.712;2023-11-19T12:09:48;15.60;91.80
25352;DHT22;13304;48.464;8.712;2023-11-19T12:12:23;15.50;91.20
25352;DHT22;13304;48.464;8.712;2023-11-19T12:15:08;15.50;91.30
25352;DHT22;13304;48.464;8.712;2023-11-19T12:17:40;15.50;91.10
25352;DHT22;13304;48.464;8.712;2023-11-19T12:20:08;15.50;91.40
25352;DHT22;13304;48.464;8.712;2023-11-19T12:22:38;15.60;91.00
25352;DHT22;13304;48.464;8.712;2023-11-19T12:25:08;15.60;90.60
25352;DHT22;13304;48.464;8.712;2023-11-19T12:27:47;15.60;90.70
25352;DHT22;13304;48.464;8.712;2023-11-19T12:30:17;15.60;90.70
25352;DHT22;13304;48.464;8.712;2023-11-19T12:32:45;15.60;90.70
25352;DHT22;13304;48.464;8.712;2023-11-19T12:35:11;15.70;91.10
25352;DHT22;13304;48.464;8.712;2023-11-19T12:37:44;15.70;91.40
25352;DHT22;13304;48.464;8.712;2023-11-19T12:40:13;15.60;91.10
25352;DHT22;13304;48.464;8.712;2023-11-19T12:42:39;15.70;91.50
25352;DHT22;13304;48.464;8.712;2023-11-19T12:45:05;15.70;91.30
25352;DHT22;13304;48.464;8.712;2023-11-19T12:47:31;15.80;91.30
25352;DHT22;13304;48.464;8.712;2023-11-19T12:49:57;15.90;91.20
25352;DHT22;13304;48.464;8.712;2023-11-19T12:52:23;15.90;91.10
25352;DHT22;13304;48.464;8.712;2023-11-19T12:54:49;15.90;91.30
25352;DHT22;13304;48.464;8.712;2023-11-19T12:57:15;15.90;91.50
25352;DHT22;13304;48.464;8.712;2023-11-19T12:59:41;15.90;91.30
25352;DHT22;13304;48.464;8.712;2023-11-19T13:02:08;15.90;91.40
25352;DHT22;13304;48.464;8.712;2023-11-19T13:04:34;15.90;90.70
25352;DHT22;13304;48.464;8.712;2023-11-19T13:07:00;15.90;90.60
25352;DHT22;13304;48.464;8.712;2023-11-19T13:09:28;15.90;90.40
25352;DHT22;13304;48.464;8.712;2023-11-19T13:11:55;15.90;90.60
25352;DHT22;13304;48.464;8.712;2023-11-19T13:14:22;15.80;90.70
25352;DHT22;13304;48.464;8.712;2023-11-19T13:16:48;15.80;90.50
25352;DHT22;13304;48.464;8.712;2023-11-19T13:19:15;15.90;90.70
25352;DHT22;13304;48.464;8.712;2023-11-19T13:21:41;15.80;90.90
25352;DHT22;13304;48.464;8.712;2023-11-19T13:24:07;15.90;90.80
25352;DHT22;13304;48.464;8.712;2023-11-19T13:26:33;15.90;90.70
25352;DHT22;13304;48.464;8.712;2023-11-19T13:29:00;15.80;90.50
25352;DHT22;13304;48.464;8.712;2023-11-19T13:31:26;15.80;90.50
25352;DHT22;13304;48.464;8.712;2023-11-19T13:33:52;15.80;90.30
25352;DHT22;13304;48.464;8.712;2023-11-19T13:36:17;15.80;90.60
25352;DHT22;13304;48.464;8.712;2023-11-19T13:38:44;15.80;90.20
25352;DHT22;13304;48.464;8.712;2023-11-19T13:41:11;15.80;90.40
25352;DHT22;13304;48.464;8.712;2023-11-19T13:43:37;15.80;90.20
25352;DHT22;13304;48.464;8.712;2023-11-19T13:46:03;15.80;90.20
25352;DHT22;13304;48.464;8.712;2023-11-19T13:48:29;15.70;90.00
25352;DHT22;13304;48.464;8.712;2023-11-19T13:50:56;15.80;89.30
25352;DHT22;13304;48.464;8.712;2023-11-19T13:53:22;15.80;89.40
25352;DHT22;13304;48.464;8.712;2023-11-19T13:55:51;15.70;89.70
25352;DHT22;13304;48.464;8.712;2023-11-19T13:58:16;15.70;90.00
25352;DHT22;13304;48.464;8.712;2023-11-19T14:00:42;15.70;90.10
25352;DHT22;13304;48.464;8.712;2023-11-19T14:03:09;15.70;89.60
25352;DHT22;13304;48.464;8.712;2023-11-19T14:05:38;15.70;90.00
25352;DHT22;13304;48.464;8.712;2023-11-19T14:08:04;15.60;90.20
25352;DHT22;13304;48.464;8.712;2023-11-19T14:10:40;15.60;89.80
25352;DHT22;13304;48.464;8.712;2023-11-19T14:13:09;15.60;90.30
25352;DHT22;13304;48.464;8.712;2023-11-19T14:15:34;15.70;90.40
25352;DHT22;13304;48.464;8.712;2023-11-19T14:18:01;15.70;90.30
25352;DHT22;13304;48.464;8.712;2023-11-19T14:20:27;15.70;90.20
25352;DHT22;13304;48.464;8.712;2023-11-19T14:22:52;15.70;90.10
25352;DHT22;13304;48.464;8.712;2023-11-19T14:25:18;15.70;90.10
25352;DHT22;13304;48.464;8.712;2023-11-19T14:27:45;15.70;90.20
25352;DHT22;13304;48.464;8.712;2023-11-19T14:30:14;15.70;90.20
25352;DHT22;13304;48.464;8.712;2023-11-19T14:32:42;15.70;90.20
25352;DHT22;13304;48.464;8.712;2023-11-19T14:35:10;15.60;90.20
25352;DHT22;13304;48.464;8.712;2023-11-19T14:37:35;15.60;90.30
25352;DHT22;13304;48.464;8.712;2023-11-19T14:40:02;15.60;90.40
25352;DHT22;13304;48.464;8.712;2023-11-19T14:42:33;15.60;90.00
25352;DHT22;13304;48.464;8.712;2023-11-19T14:44:59;15.60;89.70
25352;DHT22;13304;48.464;8.712;2023-11-19T14:47:25;15.50;89.90
25352;DHT22;13304;48.464;8.712;2023-11-19T14:49:51;15.50;90.00
25352;DHT22;13304;48.464;8.712;2023-11-19T14:52:17;15.50;89.70
25352;DHT22;13304;48.464;8.712;2023-11-19T14:54:42;15.50;88.90
25352;DHT22;13304;48.464;8.712;2023-11-19T14:57:08;15.50;88.90
25352;DHT22;13304;48.464;8.712;2023-11-19T14:59:35;15.50;89.50
25352;DHT22;13304;48.464;8.712;2023-11-19T15:02:01;15.40;89.20
25352;DHT22;13304;48.464;8.712;2023-11-19T15:04:27;15.40;88.90
25352;DHT22;13304;48.464;8.712;2023-11-19T15:06:52;15.40;89.20
25352;DHT22;13304;48.464;8.712;2023-11-19T15:09:18;15.30;89.50
25352;DHT22;13304;48.464;8.712;2023-11-19T15:11:46;15.30;89.70
25352;DHT22;13304;48.464;8.712;2023-11-19T15:14:13;15.30;90.00
25352;DHT22;13304;48.464;8.712;2023-11-19T15:16:45;15.30;90.10
25352;DHT22;13304;48.464;8.712;2023-11-19T15:19:11;15.30;90.20
25352;DHT22;13304;48.464;8.712;2023-11-19T15:21:38;15.20;90.10
25352;DHT22;13304;48.464;8.712;2023-11-19T15:24:04;15.20;90.10
25352;DHT22;13304;48.464;8.712;2023-11-19T15:26:35;15.20;90.20
25352;DHT22;13304;48.464;8.712;2023-11-19T15:29:02;15.20;90.40
25352;DHT22;13304;48.464;8.712;2023-11-19T15:31:28;15.20;90.40
25352;DHT22;13304;48.464;8.712;2023-11-19T15:33:54;15.20;90.60
25352;DHT22;13304;48.464;8.712;2023-11-19T15:36:19;15.30;90.40
25352;DHT22;13304;48.464;8.712;2023-11-19T15:38:45;15.20;90.40
25352;DHT22;13304;48.464;8.712;2023-11-19T15:41:11;15.20;90.40
25352;DHT22;13304;48.464;8.712;2023-11-19T15:43:37;15.20;90.50
25352;DHT22;13304;48.464;8.712;2023-11-19T15:46:10;15.20;90.40
25352;DHT22;13304;48.464;8.712;2023-11-19T15:48:36;15.20;90.30
25352;DHT22;13304;48.464;8.712;2023-11-19T15:51:02;15.20;90.20
25352;DHT22;13304;48.464;8.712;2023-11-19T15:53:29;15.20;90.20